sensor_id;sensor_type;location;lat;lon;timestamp;P1;durP1;ratioP1;P2;durP2;ratioP2
18265;SDS011;9259;48.194;16.322;2023-03-01T00:01:11;46.50;;;19.53;;
18265;SDS011;9259;48.194;16.322;2023-03-01T00:03:41;44.37;;;18.90;;
18265;SDS011;9259;48.194;16.322;2023-03-01T00:06:09;47.07;;;19.30;;
18265;SDS011;9259;48.194;16.322;2023-03-01T00:08:38;44.90;;;19.17;;
18265;SDS011;9259;48.194;16.322;2023-03-01T00:11:07;47.07;;;19.93;;
18265;SDS011;9259;48.194;16.322;2023-03-01T00:13:39;46.07;;;17.80;;
18265;SDS011;9259;48.194;16.322;2023-03-01T00:16:09;40.87;;;16.93;;
18265;SDS011;9259;48.194;16.322;2023-03-01T00:18:38;44.80;;;17.37;;
18265;SDS011;9259;48.194;16.322;2023-03-01T00:21:07;38.27;;;16.20;;
18265;SDS011;9259;48.194;16.322;2023-03-01T00:23:35;40.43;;;16.63;;
18265;SDS011;9259;48.194;16.322;2023-03-01T00:26:05;42.70;;;17.10;;
18265;SDS011;9259;48.194;16.322;2023-03-01T00:28:34;41.03;;;17.13;;
18265;SDS011;9259;48.194;16.322;2023-03-01T00:31:04;40.23;;;16.57;;
18265;SDS011;9259;48.194;16.322;2023-03-01T00:33:33;38.23;;;16.27;;
18265;SDS011;9259;48.194;16.322;2023-03-01T00:36:02;38.27;;;16.43;;
18265;SDS011;9259;48.194;16.322;2023-03-01T00:38:34;40.13;;;16.70;;
18265;SDS011;9259;48.194;16.322;2023-03-01T00:41:03;42.10;;;17.00;;
18265;SDS011;9259;48.194;16.322;2023-03-01T00:43:32;36.60;;;16.63;;
18265;SDS011;9259;48.194;16.322;2023-03-01T00:46:02;41.97;;;16.23;;
18265;SDS011;9259;48.194;16.322;2023-03-01T00:48:32;39.10;;;15.63;;
18265;SDS011;9259;48.194;16.322;2023-03-01T00:51:04;38.80;;;16.73;;
18265;SDS011;9259;48.194;16.322;2023-03-01T00:53:33;47.53;;;17.07;;
18265;SDS011;9259;48.194;16.322;2023-03-01T00:56:02;36.93;;;15.83;;
18265;SDS011;9259;48.194;16.322;2023-03-01T00:58:31;35.47;;;15.47;;
18265;SDS011;9259;48.194;16.322;2023-03-01T01:00:59;38.80;;;16.47;;
18265;SDS011;9259;48.194;16.322;2023-03-01T01:03:29;40.37;;;16.30;;
18265;SDS011;9259;48.194;16.322;2023-03-01T01:05:57;43.40;;;15.93;;
18265;SDS011;9259;48.194;16.322;2023-03-01T01:08:35;40.30;;;16.67;;
18265;SDS011;9259;48.194;16.322;2023-03-01T01:11:03;37.60;;;15.80;;
18265;SDS011;9259;48.194;16.322;2023-03-01T01:13:31;34.13;;;15.83;;
18265;SDS011;9259;48.194;16.322;2023-03-01T01:16:00;42.57;;;15.97;;
18265;SDS011;9259;48.194;16.322;2023-03-01T01:18:29;35.67;;;14.93;;
18265;SDS011;9259;48.194;16.322;2023-03-01T01:21:02;36.63;;;16.00;;
18265;SDS011;9259;48.194;16.322;2023-03-01T01:23:31;39.60;;;15.37;;
18265;SDS011;9259;48.194;16.322;2023-03-01T01:26:03;39.60;;;15.43;;
18265;SDS011;9259;48.194;16.322;2023-03-01T01:28:32;37.63;;;15.40;;
18265;SDS011;9259;48.194;16.322;2023-03-01T01:31:00;40.83;;;14.93;;
18265;SDS011;9259;48.194;16.322;2023-03-01T01:33:30;38.67;;;16.07;;
18265;SDS011;9259;48.194;16.322;2023-03-01T01:35:58;46.47;;;15.90;;
18265;SDS011;9259;48.194;16.322;2023-03-01T01:38:26;38.57;;;15.23;;
18265;SDS011;9259;48.194;16.322;2023-03-01T01:40:54;36.93;;;15.77;;
18265;SDS011;9259;48.194;16.322;2023-03-01T01:43:23;39.33;;;16.40;;
18265;SDS011;9259;48.194;16.322;2023-03-01T01:45:52;38.23;;;15.07;;
18265;SDS011;9259;48.194;16.322;2023-03-01T01:48:24;35.80;;;15.27;;
18265;SDS011;9259;48.194;16.322;2023-03-01T01:51:07;39.37;;;15.33;;
18265;SDS011;9259;48.194;16.322;2023-03-01T01:53:40;35.20;;;14.73;;
18265;SDS011;9259;48.194;16.322;2023-03-01T01:56:09;35.20;;;15.30;;
18265;SDS011;9259;48.194;16.322;2023-03-01T01:58:39;34.80;;;15.03;;
18265;SDS011;9259;48.194;16.322;2023-03-01T02:01:09;36.27;;;15.77;;
18265;SDS011;9259;48.194;16.322;2023-03-01T02:03:38;37.70;;;15.00;;
18265;SDS011;9259;48.194;16.322;2023-03-01T02:06:12;32.67;;;14.83;;
18265;SDS011;9259;48.194;16.322;2023-03-01T02:08:47;37.77;;;15.30;;
18265;SDS011;9259;48.194;16.322;2023-03-01T02:11:16;34.93;;;14.83;;
18265;SDS011;9259;48.194;16.322;2023-03-01T02:13:45;34.10;;;14.77;;
18265;SDS011;9259;48.194;16.322;2023-03-01T02:16:14;35.37;;;15.63;;
18265;SDS011;9259;48.194;16.322;2023-03-01T02:18:43;33.60;;;14.73;;
18265;SDS011;9259;48.194;16.322;2023-03-01T02:21:23;35.60;;;15.77;;
18265;SDS011;9259;48.194;16.322;2023-03-01T02:23:58;34.10;;;15.50;;
18265;SDS011;9259;48.194;16.322;2023-03-01T02:26:33;37.27;;;14.23;;
18265;SDS011;9259;48.194;16.322;2023-03-01T02:29:07;35.90;;;15.33;;
18265;SDS011;9259;48.194;16.322;2023-03-01T02:31:35;36.13;;;15.37;;
18265;SDS011;9259;48.194;16.322;2023-03-01T02:34:12;34.20;;;14.73;;
18265;SDS011;9259;48.194;16.322;2023-03-01T02:36:43;37.07;;;14.80;;
18265;SDS011;9259;48.194;16.322;2023-03-01T02:39:14;34.10;;;15.53;;
18265;SDS011;9259;48.194;16.322;2023-03-01T02:41:45;41.33;;;16.43;;
18265;SDS011;9259;48.194;16.322;2023-03-01T02:44:16;37.10;;;16.13;;
18265;SDS011;9259;48.194;16.322;2023-03-01T02:46:45;38.17;;;16.10;;
18265;SDS011;9259;48.194;16.322;2023-03-01T02:49:18;38.17;;;15.90;;
18265;SDS011;9259;48.194;16.322;2023-03-01T02:51:52;36.83;;;15.57;;
18265;SDS011;9259;48.194;16.322;2023-03-01T02:54:34;37.77;;;15.70;;
18265;SDS011;9259;48.194;16.322;2023-03-01T02:57:06;35.50;;;15.67;;
18265;SDS011;9259;48.194;16.322;2023-03-01T02:59:36;34.60;;;15.97;;
18265;SDS011;9259;48.194;16.322;2023-03-01T03:02:06;34.73;;;16.00;;
18265;SDS011;9259;48.194;16.322;2023-03-01T03:04:34;36.57;;;15.53;;
18265;SDS011;9259;48.194;16.322;2023-03-01T03:07:02;40.80;;;16.53;;
18265;SDS011;9259;48.194;16.322;2023-03-01T03:09:30;37.07;;;16.73;;
18265;SDS011;9259;48.194;16.322;2023-03-01T03:11:58;42.40;;;17.63;;
18265;SDS011;9259;48.194;16.322;2023-03-01T03:14:26;38.20;;;16.37;;
18265;SDS011;9259;48.194;16.322;2023-03-01T03:16:56;40.03;;;17.00;;
18265;SDS011;9259;48.194;16.322;2023-03-01T03:19:24;46.53;;;19.57;;
18265;SDS011;9259;48.194;16.322;2023-03-01T03:21:52;50.00;;;19.67;;
18265;SDS011;9259;48.194;16.322;2023-03-01T03:24:20;47.47;;;19.83;;
18265;SDS011;9259;48.194;16.322;2023-03-01T03:26:48;45.03;;;19.93;;
18265;SDS011;9259;48.194;16.322;2023-03-01T03:29:17;49.57;;;20.30;;
18265;SDS011;9259;48.194;16.322;2023-03-01T03:31:45;45.63;;;20.03;;
18265;SDS011;9259;48.194;16.322;2023-03-01T03:34:14;53.33;;;21.13;;
18265;SDS011;9259;48.194;16.322;2023-03-01T03:36:43;58.07;;;22.60;;
18265;SDS011;9259;48.194;16.322;2023-03-01T03:39:11;54.73;;;21.90;;
18265;SDS011;9259;48.194;16.322;2023-03-01T03:41:39;51.60;;;21.23;;
18265;SDS011;9259;48.194;16.322;2023-03-01T03:44:07;54.67;;;22.13;;
18265;SDS011;9259;48.194;16.322;2023-03-01T03:46:36;53.33;;;22.07;;
18265;SDS011;9259;48.194;16.322;2023-03-01T03:49:04;59.80;;;24.37;;
18265;SDS011;9259;48.194;16.322;2023-03-01T03:51:33;59.07;;;23.47;;
18265;SDS011;9259;48.194;16.322;2023-03-01T03:54:01;57.13;;;23.43;;
18265;SDS011;9259;48.194;16.322;2023-03-01T03:56:29;54.27;;;22.57;;
18265;SDS011;9259;48.194;16.322;2023-03-01T03:58:58;56.77;;;23.90;;
18265;SDS011;9259;48.194;16.322;2023-03-01T04:01:26;53.63;;;23.10;;
18265;SDS011;9259;48.194;16.322;2023-03-01T04:03:54;58.60;;;23.43;;
18265;SDS011;9259;48.194;16.322;2023-03-01T04:06:22;54.13;;;23.40;;
18265;SDS011;9259;48.194;16.322;2023-03-01T04:08:51;55.10;;;23.87;;
18265;SDS011;9259;48.194;16.322;2023-03-01T04:11:24;57.30;;;22.63;;
18265;SDS011;9259;48.194;16.322;2023-03-01T04:13:55;56.33;;;24.20;;
18265;SDS011;9259;48.194;16.322;2023-03-01T04:16:24;55.60;;;23.37;;
18265;SDS011;9259;48.194;16.322;2023-03-01T04:18:52;57.33;;;24.70;;
18265;SDS011;9259;48.194;16.322;2023-03-01T04:21:21;58.87;;;23.90;;
18265;SDS011;9259;48.194;16.322;2023-03-01T04:23:49;56.23;;;22.50;;
18265;SDS011;9259;48.194;16.322;2023-03-01T04:26:19;55.13;;;22.57;;
18265;SDS011;9259;48.194;16.322;2023-03-01T04:28:47;58.57;;;23.77;;
18265;SDS011;9259;48.194;16.322;2023-03-01T04:31:16;61.60;;;23.43;;
18265;SDS011;9259;48.194;16.322;2023-03-01T04:33:47;54.53;;;23.63;;
18265;SDS011;9259;48.194;16.322;2023-03-01T04:36:17;57.70;;;23.30;;
18265;SDS011;9259;48.194;16.322;2023-03-01T04:38:46;61.40;;;23.57;;
18265;SDS011;9259;48.194;16.322;2023-03-01T04:41:16;53.93;;;23.53;;
18265;SDS011;9259;48.194;16.322;2023-03-01T04:43:46;60.63;;;23.73;;
18265;SDS011;9259;48.194;16.322;2023-03-01T04:46:15;58.87;;;23.80;;
18265;SDS011;9259;48.194;16.322;2023-03-01T04:48:44;54.70;;;23.37;;
18265;SDS011;9259;48.194;16.322;2023-03-01T04:51:13;61.17;;;24.00;;
18265;SDS011;9259;48.194;16.322;2023-03-01T04:53:41;54.47;;;23.60;;
18265;SDS011;9259;48.194;16.322;2023-03-01T04:56:10;62.67;;;23.73;;
18265;SDS011;9259;48.194;16.322;2023-03-01T04:58:40;58.47;;;23.67;;
18265;SDS011;9259;48.194;16.322;2023-03-01T05:01:09;55.30;;;23.67;;
18265;SDS011;9259;48.194;16.322;2023-03-01T05:03:41;58.10;;;24.17;;
18265;SDS011;9259;48.194;16.322;2023-03-01T05:06:09;52.70;;;22.47;;
18265;SDS011;9259;48.194;16.322;2023-03-01T05:08:38;54.43;;;22.57;;
18265;SDS011;9259;48.194;16.322;2023-03-01T05:11:07;54.83;;;24.03;;
18265;SDS011;9259;48.194;16.322;2023-03-01T05:13:35;59.47;;;23.43;;
18265;SDS011;9259;48.194;16.322;2023-03-01T05:16:07;58.13;;;22.90;;
18265;SDS011;9259;48.194;16.322;2023-03-01T05:18:36;57.80;;;23.73;;
18265;SDS011;9259;48.194;16.322;2023-03-01T05:21:06;59.17;;;24.50;;
18265;SDS011;9259;48.194;16.322;2023-03-01T05:23:35;54.13;;;22.37;;
18265;SDS011;9259;48.194;16.322;2023-03-01T05:26:04;55.53;;;22.97;;
18265;SDS011;9259;48.194;16.322;2023-03-01T05:28:33;62.60;;;23.57;;
18265;SDS011;9259;48.194;16.322;2023-03-01T05:31:01;58.90;;;23.33;;
18265;SDS011;9259;48.194;16.322;2023-03-01T05:33:36;57.27;;;23.93;;
18265;SDS011;9259;48.194;16.322;2023-03-01T05:36:05;57.80;;;23.80;;
18265;SDS011;9259;48.194;16.322;2023-03-01T05:38:35;60.33;;;23.57;;
18265;SDS011;9259;48.194;16.322;2023-03-01T05:41:04;61.40;;;24.17;;
18265;SDS011;9259;48.194;16.322;2023-03-01T05:43:32;56.87;;;23.23;;
18265;SDS011;9259;48.194;16.322;2023-03-01T05:46:00;51.17;;;22.07;;
18265;SDS011;9259;48.194;16.322;2023-03-01T05:48:28;53.43;;;23.53;;
18265;SDS011;9259;48.194;16.322;2023-03-01T05:50:59;54.73;;;22.93;;
18265;SDS011;9259;48.194;16.322;2023-03-01T05:53:27;52.93;;;22.97;;
18265;SDS011;9259;48.194;16.322;2023-03-01T05:55:55;60.60;;;23.87;;
18265;SDS011;9259;48.194;16.322;2023-03-01T05:58:24;53.63;;;21.80;;
18265;SDS011;9259;48.194;16.322;2023-03-01T06:00:52;57.77;;;23.40;;
18265;SDS011;9259;48.194;16.322;2023-03-01T06:03:21;60.50;;;23.77;;
18265;SDS011;9259;48.194;16.322;2023-03-01T06:05:49;58.40;;;22.63;;
18265;SDS011;9259;48.194;16.322;2023-03-01T06:08:23;53.67;;;23.10;;
18265;SDS011;9259;48.194;16.322;2023-03-01T06:10:52;61.87;;;23.97;;
18265;SDS011;9259;48.194;16.322;2023-03-01T06:13:20;54.27;;;22.53;;
18265;SDS011;9259;48.194;16.322;2023-03-01T06:15:49;49.70;;;21.80;;
18265;SDS011;9259;48.194;16.322;2023-03-01T06:18:17;58.23;;;23.93;;
18265;SDS011;9259;48.194;16.322;2023-03-01T06:20:45;55.03;;;22.73;;
18265;SDS011;9259;48.194;16.322;2023-03-01T06:23:20;53.63;;;22.93;;
18265;SDS011;9259;48.194;16.322;2023-03-01T06:25:50;55.43;;;22.80;;
18265;SDS011;9259;48.194;16.322;2023-03-01T06:28:18;52.13;;;23.40;;
18265;SDS011;9259;48.194;16.322;2023-03-01T06:30:47;58.43;;;23.00;;
18265;SDS011;9259;48.194;16.322;2023-03-01T06:33:15;54.70;;;23.23;;
18265;SDS011;9259;48.194;16.322;2023-03-01T06:35:45;52.33;;;22.63;;
18265;SDS011;9259;48.194;16.322;2023-03-01T06:38:13;47.57;;;22.53;;
18265;SDS011;9259;48.194;16.322;2023-03-01T06:40:44;52.07;;;22.33;;
18265;SDS011;9259;48.194;16.322;2023-03-01T06:43:13;53.57;;;22.50;;
18265;SDS011;9259;48.194;16.322;2023-03-01T06:45:41;57.57;;;22.43;;
18265;SDS011;9259;48.194;16.322;2023-03-01T06:48:09;63.30;;;24.57;;
18265;SDS011;9259;48.194;16.322;2023-03-01T06:50:38;55.40;;;23.47;;
18265;SDS011;9259;48.194;16.322;2023-03-01T06:53:06;53.37;;;22.27;;
18265;SDS011;9259;48.194;16.322;2023-03-01T06:55:34;55.63;;;22.53;;
18265;SDS011;9259;48.194;16.322;2023-03-01T06:58:02;54.07;;;23.40;;
18265;SDS011;9259;48.194;16.322;2023-03-01T07:00:32;56.30;;;23.23;;
18265;SDS011;9259;48.194;16.322;2023-03-01T07:03:00;53.73;;;23.07;;
18265;SDS011;9259;48.194;16.322;2023-03-01T07:05:29;52.00;;;22.03;;
18265;SDS011;9259;48.194;16.322;2023-03-01T07:07:57;50.83;;;21.87;;
18265;SDS011;9259;48.194;16.322;2023-03-01T07:10:25;58.23;;;23.50;;
18265;SDS011;9259;48.194;16.322;2023-03-01T07:12:54;49.90;;;22.00;;
18265;SDS011;9259;48.194;16.322;2023-03-01T07:15:23;56.80;;;22.77;;
18265;SDS011;9259;48.194;16.322;2023-03-01T07:17:52;55.43;;;22.37;;
18265;SDS011;9259;48.194;16.322;2023-03-01T07:20:20;57.00;;;22.93;;
18265;SDS011;9259;48.194;16.322;2023-03-01T07:22:50;64.97;;;24.00;;
18265;SDS011;9259;48.194;16.322;2023-03-01T07:25:18;53.47;;;23.87;;
18265;SDS011;9259;48.194;16.322;2023-03-01T07:27:48;53.23;;;22.83;;
18265;SDS011;9259;48.194;16.322;2023-03-01T07:30:18;53.23;;;22.97;;
18265;SDS011;9259;48.194;16.322;2023-03-01T07:32:46;55.17;;;23.97;;
18265;SDS011;9259;48.194;16.322;2023-03-01T07:35:15;53.47;;;23.27;;
18265;SDS011;9259;48.194;16.322;2023-03-01T07:37:44;60.63;;;23.80;;
18265;SDS011;9259;48.194;16.322;2023-03-01T07:40:12;54.67;;;22.60;;
18265;SDS011;9259;48.194;16.322;2023-03-01T07:42:40;59.23;;;22.90;;
18265;SDS011;9259;48.194;16.322;2023-03-01T07:45:09;59.27;;;23.83;;
18265;SDS011;9259;48.194;16.322;2023-03-01T07:47:39;51.93;;;22.70;;
18265;SDS011;9259;48.194;16.322;2023-03-01T07:50:08;53.30;;;22.70;;
18265;SDS011;9259;48.194;16.322;2023-03-01T07:52:38;49.77;;;22.67;;
18265;SDS011;9259;48.194;16.322;2023-03-01T07:55:07;58.10;;;22.73;;
18265;SDS011;9259;48.194;16.322;2023-03-01T07:57:35;47.97;;;21.13;;
18265;SDS011;9259;48.194;16.322;2023-03-01T08:00:03;48.00;;;20.77;;
18265;SDS011;9259;48.194;16.322;2023-03-01T08:02:32;46.60;;;21.20;;
18265;SDS011;9259;48.194;16.322;2023-03-01T08:05:01;46.17;;;20.90;;
18265;SDS011;9259;48.194;16.322;2023-03-01T08:07:29;50.70;;;21.90;;
18265;SDS011;9259;48.194;16.322;2023-03-01T08:09:58;55.13;;;23.10;;
18265;SDS011;9259;48.194;16.322;2023-03-01T08:12:26;46.53;;;21.70;;
18265;SDS011;9259;48.194;16.322;2023-03-01T08:14:55;52.80;;;22.03;;
18265;SDS011;9259;48.194;16.322;2023-03-01T08:17:23;51.37;;;21.73;;
18265;SDS011;9259;48.194;16.322;2023-03-01T08:19:51;55.77;;;22.83;;
18265;SDS011;9259;48.194;16.322;2023-03-01T08:22:19;55.23;;;22.90;;
18265;SDS011;9259;48.194;16.322;2023-03-01T08:24:48;50.27;;;23.13;;
18265;SDS011;9259;48.194;16.322;2023-03-01T08:27:17;53.07;;;22.33;;
18265;SDS011;9259;48.194;16.322;2023-03-01T08:29:45;57.83;;;23.37;;
18265;SDS011;9259;48.194;16.322;2023-03-01T08:32:13;53.70;;;23.47;;
18265;SDS011;9259;48.194;16.322;2023-03-01T08:34:42;53.93;;;22.80;;
18265;SDS011;9259;48.194;16.322;2023-03-01T08:37:13;58.57;;;23.50;;
18265;SDS011;9259;48.194;16.322;2023-03-01T08:39:41;55.20;;;23.57;;
18265;SDS011;9259;48.194;16.322;2023-03-01T08:42:09;55.30;;;23.67;;
18265;SDS011;9259;48.194;16.322;2023-03-01T08:44:38;55.33;;;23.87;;
18265;SDS011;9259;48.194;16.322;2023-03-01T08:47:06;48.03;;;22.53;;
18265;SDS011;9259;48.194;16.322;2023-03-01T08:49:35;50.60;;;23.60;;
18265;SDS011;9259;48.194;16.322;2023-03-01T08:52:03;51.93;;;23.77;;
18265;SDS011;9259;48.194;16.322;2023-03-01T08:54:31;57.23;;;22.03;;
18265;SDS011;9259;48.194;16.322;2023-03-01T08:57:01;54.93;;;23.93;;
18265;SDS011;9259;48.194;16.322;2023-03-01T08:59:29;58.20;;;22.60;;
18265;SDS011;9259;48.194;16.322;2023-03-01T09:02:04;54.77;;;23.23;;
18265;SDS011;9259;48.194;16.322;2023-03-01T09:04:33;53.00;;;23.23;;
18265;SDS011;9259;48.194;16.322;2023-03-01T09:07:01;52.33;;;22.87;;
18265;SDS011;9259;48.194;16.322;2023-03-01T09:09:29;52.60;;;22.60;;
18265;SDS011;9259;48.194;16.322;2023-03-01T09:11:57;48.20;;;22.17;;
18265;SDS011;9259;48.194;16.322;2023-03-01T09:14:26;49.40;;;22.43;;
18265;SDS011;9259;48.194;16.322;2023-03-01T09:16:54;49.87;;;23.17;;
18265;SDS011;9259;48.194;16.322;2023-03-01T09:19:23;56.43;;;23.37;;
18265;SDS011;9259;48.194;16.322;2023-03-01T09:21:51;47.13;;;22.00;;
18265;SDS011;9259;48.194;16.322;2023-03-01T09:24:22;43.10;;;21.73;;
18265;SDS011;9259;48.194;16.322;2023-03-01T09:26:52;44.40;;;21.13;;
18265;SDS011;9259;48.194;16.322;2023-03-01T09:29:21;48.23;;;21.27;;
18265;SDS011;9259;48.194;16.322;2023-03-01T09:31:49;48.93;;;21.27;;
18265;SDS011;9259;48.194;16.322;2023-03-01T09:34:20;49.83;;;22.10;;
18265;SDS011;9259;48.194;16.322;2023-03-01T09:36:51;46.33;;;20.23;;
18265;SDS011;9259;48.194;16.322;2023-03-01T09:39:19;44.57;;;21.47;;
18265;SDS011;9259;48.194;16.322;2023-03-01T09:41:49;43.00;;;19.17;;
18265;SDS011;9259;48.194;16.322;2023-03-01T09:44:24;49.80;;;21.10;;
18265;SDS011;9259;48.194;16.322;2023-03-01T09:46:57;46.13;;;20.33;;
18265;SDS011;9259;48.194;16.322;2023-03-01T09:49:27;46.03;;;20.50;;
18265;SDS011;9259;48.194;16.322;2023-03-01T09:52:00;44.73;;;19.90;;
18265;SDS011;9259;48.194;16.322;2023-03-01T09:54:30;41.07;;;18.20;;
18265;SDS011;9259;48.194;16.322;2023-03-01T09:57:05;41.93;;;19.73;;
18265;SDS011;9259;48.194;16.322;2023-03-01T09:59:44;42.13;;;19.00;;
18265;SDS011;9259;48.194;16.322;2023-03-01T10:02:22;44.03;;;18.97;;
18265;SDS011;9259;48.194;16.322;2023-03-01T10:04:54;37.37;;;18.97;;
18265;SDS011;9259;48.194;16.322;2023-03-01T10:07:29;40.50;;;19.47;;
18265;SDS011;9259;48.194;16.322;2023-03-01T10:10:04;41.90;;;19.73;;
18265;SDS011;9259;48.194;16.322;2023-03-01T10:12:34;48.00;;;20.17;;
18265;SDS011;9259;48.194;16.322;2023-03-01T10:15:06;45.77;;;19.43;;
18265;SDS011;9259;48.194;16.322;2023-03-01T10:17:39;48.00;;;19.00;;
18265;SDS011;9259;48.194;16.322;2023-03-01T10:20:15;42.53;;;18.03;;
18265;SDS011;9259;48.194;16.322;2023-03-01T10:22:47;46.70;;;18.20;;
18265;SDS011;9259;48.194;16.322;2023-03-01T10:25:21;41.70;;;16.83;;
18265;SDS011;9259;48.194;16.322;2023-03-01T10:27:59;40.07;;;16.77;;
18265;SDS011;9259;48.194;16.322;2023-03-01T10:30:32;41.17;;;18.93;;
18265;SDS011;9259;48.194;16.322;2023-03-01T10:33:01;41.83;;;17.03;;
18265;SDS011;9259;48.194;16.322;2023-03-01T10:35:32;44.13;;;18.37;;
18265;SDS011;9259;48.194;16.322;2023-03-01T10:38:06;52.40;;;18.90;;
18265;SDS011;9259;48.194;16.322;2023-03-01T10:40:49;38.73;;;17.20;;
18265;SDS011;9259;48.194;16.322;2023-03-01T10:43:19;39.20;;;17.33;;
18265;SDS011;9259;48.194;16.322;2023-03-01T10:45:47;34.40;;;16.40;;
18265;SDS011;9259;48.194;16.322;2023-03-01T10:48:17;36.13;;;16.60;;
18265;SDS011;9259;48.194;16.322;2023-03-01T10:50:47;27.40;;;14.33;;
18265;SDS011;9259;48.194;16.322;2023-03-01T10:53:21;32.77;;;15.53;;
18265;SDS011;9259;48.194;16.322;2023-03-01T10:55:59;35.07;;;16.00;;
18265;SDS011;9259;48.194;16.322;2023-03-01T10:58:32;31.53;;;14.83;;
18265;SDS011;9259;48.194;16.322;2023-03-01T11:01:01;34.43;;;16.03;;
18265;SDS011;9259;48.194;16.322;2023-03-01T11:03:31;28.10;;;14.37;;
18265;SDS011;9259;48.194;16.322;2023-03-01T11:06:04;34.40;;;14.67;;
18265;SDS011;9259;48.194;16.322;2023-03-01T11:08:41;30.97;;;14.60;;
18265;SDS011;9259;48.194;16.322;2023-03-01T11:13:57;38.73;;;15.20;;
18265;SDS011;9259;48.194;16.322;2023-03-01T11:16:28;30.93;;;15.50;;
18265;SDS011;9259;48.194;16.322;2023-03-01T11:19:13;31.60;;;16.07;;
18265;SDS011;9259;48.194;16.322;2023-03-01T11:21:44;33.10;;;16.33;;
18265;SDS011;9259;48.194;16.322;2023-03-01T11:24:22;33.13;;;15.83;;
18265;SDS011;9259;48.194;16.322;2023-03-01T11:26:54;30.53;;;15.43;;
18265;SDS011;9259;48.194;16.322;2023-03-01T11:29:26;28.40;;;14.43;;
18265;SDS011;9259;48.194;16.322;2023-03-01T11:31:59;27.37;;;14.00;;
18265;SDS011;9259;48.194;16.322;2023-03-01T11:34:34;27.60;;;13.67;;
18265;SDS011;9259;48.194;16.322;2023-03-01T11:37:09;32.87;;;14.77;;
18265;SDS011;9259;48.194;16.322;2023-03-01T11:39:46;30.20;;;14.27;;
18265;SDS011;9259;48.194;16.322;2023-03-01T11:42:21;31.43;;;14.70;;
18265;SDS011;9259;48.194;16.322;2023-03-01T11:44:55;38.90;;;17.17;;
18265;SDS011;9259;48.194;16.322;2023-03-01T11:47:33;34.73;;;16.13;;
18265;SDS011;9259;48.194;16.322;2023-03-01T11:50:29;38.17;;;17.03;;
18265;SDS011;9259;48.194;16.322;2023-03-01T11:53:05;40.50;;;17.40;;
18265;SDS011;9259;48.194;16.322;2023-03-01T11:56:08;36.10;;;16.77;;
18265;SDS011;9259;48.194;16.322;2023-03-01T12:01:43;39.63;;;17.67;;
18265;SDS011;9259;48.194;16.322;2023-03-01T12:07:12;37.77;;;17.17;;
18265;SDS011;9259;48.194;16.322;2023-03-01T12:09:53;32.33;;;15.67;;
18265;SDS011;9259;48.194;16.322;2023-03-01T12:12:47;40.13;;;16.77;;
18265;SDS011;9259;48.194;16.322;2023-03-01T12:15:38;36.17;;;17.60;;
18265;SDS011;9259;48.194;16.322;2023-03-01T12:18:43;36.87;;;16.90;;
18265;SDS011;9259;48.194;16.322;2023-03-01T12:21:30;34.33;;;15.77;;
18265;SDS011;9259;48.194;16.322;2023-03-01T12:24:22;34.60;;;16.67;;
18265;SDS011;9259;48.194;16.322;2023-03-01T12:27:00;34.83;;;16.53;;
18265;SDS011;9259;48.194;16.322;2023-03-01T12:29:43;40.23;;;17.93;;
18265;SDS011;9259;48.194;16.322;2023-03-01T12:32:19;36.87;;;17.77;;
18265;SDS011;9259;48.194;16.322;2023-03-01T12:34:59;36.80;;;16.63;;
18265;SDS011;9259;48.194;16.322;2023-03-01T12:37:51;39.23;;;17.53;;
18265;SDS011;9259;48.194;16.322;2023-03-01T12:43:15;28.57;;;13.23;;
18265;SDS011;9259;48.194;16.322;2023-03-01T12:45:53;33.80;;;14.57;;
18265;SDS011;9259;48.194;16.322;2023-03-01T12:48:30;28.87;;;13.93;;
18265;SDS011;9259;48.194;16.322;2023-03-01T12:51:04;33.67;;;15.43;;
18265;SDS011;9259;48.194;16.322;2023-03-01T12:53:36;29.17;;;14.13;;
18265;SDS011;9259;48.194;16.322;2023-03-01T12:56:08;31.37;;;14.60;;
18265;SDS011;9259;48.194;16.322;2023-03-01T12:58:39;26.23;;;13.53;;
18265;SDS011;9259;48.194;16.322;2023-03-01T13:01:22;32.40;;;14.30;;
18265;SDS011;9259;48.194;16.322;2023-03-01T13:04:03;27.57;;;13.90;;
18265;SDS011;9259;48.194;16.322;2023-03-01T13:06:39;28.67;;;15.50;;
18265;SDS011;9259;48.194;16.322;2023-03-01T13:09:13;30.23;;;14.73;;
18265;SDS011;9259;48.194;16.322;2023-03-01T13:11:46;32.57;;;14.83;;
18265;SDS011;9259;48.194;16.322;2023-03-01T13:17:03;30.80;;;15.90;;
18265;SDS011;9259;48.194;16.322;2023-03-01T13:19:31;31.10;;;15.57;;
18265;SDS011;9259;48.194;16.322;2023-03-01T13:22:24;32.13;;;15.77;;
18265;SDS011;9259;48.194;16.322;2023-03-01T13:25:03;31.53;;;16.40;;
18265;SDS011;9259;48.194;16.322;2023-03-01T13:27:43;29.67;;;15.60;;
18265;SDS011;9259;48.194;16.322;2023-03-01T13:36:11;30.53;;;14.53;;
18265;SDS011;9259;48.194;16.322;2023-03-01T13:39:28;25.73;;;14.00;;
18265;SDS011;9259;48.194;16.322;2023-03-01T13:41:59;29.57;;;15.53;;
18265;SDS011;9259;48.194;16.322;2023-03-01T13:44:30;30.63;;;15.80;;
18265;SDS011;9259;48.194;16.322;2023-03-01T13:47:03;27.40;;;14.97;;
18265;SDS011;9259;48.194;16.322;2023-03-01T13:49:45;29.83;;;14.27;;
18265;SDS011;9259;48.194;16.322;2023-03-01T13:52:28;28.13;;;15.07;;
18265;SDS011;9259;48.194;16.322;2023-03-01T13:55:14;32.27;;;15.83;;
18265;SDS011;9259;48.194;16.322;2023-03-01T13:57:45;30.60;;;14.90;;
18265;SDS011;9259;48.194;16.322;2023-03-01T14:00:26;30.90;;;13.80;;
18265;SDS011;9259;48.194;16.322;2023-03-01T14:03:03;37.67;;;15.80;;
18265;SDS011;9259;48.194;16.322;2023-03-01T14:05:36;25.93;;;14.93;;
18265;SDS011;9259;48.194;16.322;2023-03-01T14:08:13;29.27;;;14.27;;
18265;SDS011;9259;48.194;16.322;2023-03-01T14:10:50;28.83;;;14.87;;
18265;SDS011;9259;48.194;16.322;2023-03-01T14:13:36;31.17;;;15.93;;
18265;SDS011;9259;48.194;16.322;2023-03-01T14:16:25;29.87;;;15.43;;
18265;SDS011;9259;48.194;16.322;2023-03-01T14:19:08;29.07;;;14.07;;
18265;SDS011;9259;48.194;16.322;2023-03-01T14:21:46;28.20;;;14.47;;
18265;SDS011;9259;48.194;16.322;2023-03-01T14:24:18;26.63;;;14.77;;
18265;SDS011;9259;48.194;16.322;2023-03-01T14:26:49;28.83;;;15.20;;
18265;SDS011;9259;48.194;16.322;2023-03-01T14:29:24;28.87;;;14.83;;
18265;SDS011;9259;48.194;16.322;2023-03-01T14:31:55;33.43;;;15.77;;
18265;SDS011;9259;48.194;16.322;2023-03-01T14:34:35;28.90;;;14.77;;
18265;SDS011;9259;48.194;16.322;2023-03-01T14:37:11;31.23;;;16.07;;
18265;SDS011;9259;48.194;16.322;2023-03-01T14:39:48;33.50;;;15.40;;
18265;SDS011;9259;48.194;16.322;2023-03-01T14:42:18;32.37;;;16.33;;
18265;SDS011;9259;48.194;16.322;2023-03-01T14:44:49;29.43;;;14.93;;
18265;SDS011;9259;48.194;16.322;2023-03-01T14:47:22;32.77;;;15.70;;
18265;SDS011;9259;48.194;16.322;2023-03-01T14:49:57;30.23;;;15.03;;
18265;SDS011;9259;48.194;16.322;2023-03-01T14:52:39;33.43;;;15.97;;
18265;SDS011;9259;48.194;16.322;2023-03-01T14:55:13;31.13;;;15.53;;
18265;SDS011;9259;48.194;16.322;2023-03-01T14:57:45;27.93;;;15.20;;
18265;SDS011;9259;48.194;16.322;2023-03-01T15:00:16;32.10;;;15.60;;
18265;SDS011;9259;48.194;16.322;2023-03-01T15:02:48;33.27;;;15.80;;
18265;SDS011;9259;48.194;16.322;2023-03-01T15:05:22;29.40;;;15.70;;
18265;SDS011;9259;48.194;16.322;2023-03-01T15:07:56;33.33;;;15.33;;